sensor_id;sensor_type;location;lat;lon;timestamp;P1;durP1;ratioP1;P2;durP2;ratioP2
5981;SDS011;3018;48.730;9.336;2023-02-23T00:01:53;24.77;;;14.23;;
5981;SDS011;3018;48.730;9.336;2023-02-23T00:04:19;21.73;;;14.50;;
5981;SDS011;3018;48.730;9.336;2023-02-23T00:06:47;24.58;;;14.07;;
5981;SDS011;3018;48.730;9.336;2023-02-23T00:09:16;23.90;;;15.38;;
5981;SDS011;3018;48.730;9.336;2023-02-23T00:11:49;22.40;;;14.02;;
5981;SDS011;3018;48.730;9.336;2023-02-23T00:14:16;21.55;;;14.18;;
5981;SDS011;3018;48.730;9.336;2023-02-23T00:16:43;25.27;;;14.70;;
5981;SDS011;3018;48.730;9.336;2023-02-23T00:19:09;21.02;;;14.27;;
5981;SDS011;3018;48.730;9.336;2023-02-23T00:21:38;23.48;;;13.75;;
5981;SDS011;3018;48.730;9.336;2023-02-23T00:24:05;24.45;;;14.95;;
5981;SDS011;3018;48.730;9.336;2023-02-23T00:26:32;21.80;;;14.73;;
5981;SDS011;3018;48.730;9.336;2023-02-23T00:29:00;25.20;;;15.07;;
5981;SDS011;3018;48.730;9.336;2023-02-23T00:31:27;21.48;;;14.98;;
5981;SDS011;3018;48.730;9.336;2023-02-23T00:33:53;18.58;;;14.57;;
5981;SDS011;3018;48.730;9.336;2023-02-23T00:36:20;22.17;;;14.93;;
5981;SDS011;3018;48.730;9.336;2023-02-23T00:38:47;23.23;;;14.57;;
5981;SDS011;3018;48.730;9.336;2023-02-23T00:41:17;26.38;;;13.82;;
5981;SDS011;3018;48.730;9.336;2023-02-23T00:43:49;20.60;;;14.77;;
5981;SDS011;3018;48.730;9.336;2023-02-23T00:46:20;23.75;;;15.15;;
5981;SDS011;3018;48.730;9.336;2023-02-23T00:48:47;23.88;;;15.70;;
5981;SDS011;3018;48.730;9.336;2023-02-23T00:51:14;24.67;;;15.35;;
5981;SDS011;3018;48.730;9.336;2023-02-23T00:53:40;21.40;;;14.15;;
5981;SDS011;3018;48.730;9.336;2023-02-23T00:56:07;23.63;;;15.23;;
5981;SDS011;3018;48.730;9.336;2023-02-23T00:58:35;27.55;;;14.48;;
5981;SDS011;3018;48.730;9.336;2023-02-23T01:01:03;25.83;;;15.48;;
5981;SDS011;3018;48.730;9.336;2023-02-23T01:03:31;22.45;;;14.90;;
5981;SDS011;3018;48.730;9.336;2023-02-23T01:05:58;22.30;;;15.10;;
5981;SDS011;3018;48.730;9.336;2023-02-23T01:08:24;23.10;;;14.30;;
5981;SDS011;3018;48.730;9.336;2023-02-23T01:10:51;23.58;;;14.52;;
5981;SDS011;3018;48.730;9.336;2023-02-23T01:13:18;22.30;;;15.23;;
5981;SDS011;3018;48.730;9.336;2023-02-23T01:15:44;21.65;;;15.15;;
5981;SDS011;3018;48.730;9.336;2023-02-23T01:18:12;20.35;;;13.95;;
5981;SDS011;3018;48.730;9.336;2023-02-23T01:20:40;22.35;;;15.07;;
5981;SDS011;3018;48.730;9.336;2023-02-23T01:23:06;23.30;;;15.98;;
5981;SDS011;3018;48.730;9.336;2023-02-23T01:25:33;21.17;;;14.52;;
5981;SDS011;3018;48.730;9.336;2023-02-23T01:27:59;24.30;;;14.98;;
5981;SDS011;3018;48.730;9.336;2023-02-23T01:30:26;21.17;;;15.20;;
5981;SDS011;3018;48.730;9.336;2023-02-23T01:32:53;23.77;;;15.77;;
5981;SDS011;3018;48.730;9.336;2023-02-23T01:35:19;21.83;;;15.15;;
5981;SDS011;3018;48.730;9.336;2023-02-23T01:37:46;23.80;;;15.43;;
5981;SDS011;3018;48.730;9.336;2023-02-23T01:40:14;22.20;;;15.75;;
5981;SDS011;3018;48.730;9.336;2023-02-23T01:42:52;21.63;;;14.93;;
5981;SDS011;3018;48.730;9.336;2023-02-23T01:45:24;25.38;;;15.93;;
5981;SDS011;3018;48.730;9.336;2023-02-23T01:47:51;25.23;;;14.82;;
5981;SDS011;3018;48.730;9.336;2023-02-23T01:50:19;22.38;;;14.80;;
5981;SDS011;3018;48.730;9.336;2023-02-23T01:52:47;23.92;;;15.60;;
5981;SDS011;3018;48.730;9.336;2023-02-23T01:55:15;22.73;;;15.40;;
5981;SDS011;3018;48.730;9.336;2023-02-23T01:57:47;20.83;;;15.23;;
5981;SDS011;3018;48.730;9.336;2023-02-23T02:00:14;21.52;;;16.33;;
5981;SDS011;3018;48.730;9.336;2023-02-23T02:02:44;27.33;;;16.25;;
5981;SDS011;3018;48.730;9.336;2023-02-23T02:05:12;25.35;;;16.70;;
5981;SDS011;3018;48.730;9.336;2023-02-23T02:07:40;26.05;;;16.17;;
5981;SDS011;3018;48.730;9.336;2023-02-23T02:10:10;23.08;;;15.43;;
5981;SDS011;3018;48.730;9.336;2023-02-23T02:12:54;18.63;;;14.15;;
5981;SDS011;3018;48.730;9.336;2023-02-23T02:15:21;23.83;;;14.95;;
5981;SDS011;3018;48.730;9.336;2023-02-23T02:17:52;22.67;;;15.27;;
5981;SDS011;3018;48.730;9.336;2023-02-23T02:20:37;25.42;;;16.65;;
5981;SDS011;3018;48.730;9.336;2023-02-23T02:23:26;23.08;;;15.20;;
5981;SDS011;3018;48.730;9.336;2023-02-23T02:26:02;20.42;;;15.27;;
5981;SDS011;3018;48.730;9.336;2023-02-23T02:31:20;22.00;;;15.55;;
5981;SDS011;3018;48.730;9.336;2023-02-23T02:33:54;24.83;;;16.60;;
5981;SDS011;3018;48.730;9.336;2023-02-23T02:39:22;20.20;;;15.18;;
5981;SDS011;3018;48.730;9.336;2023-02-23T02:42:00;22.00;;;15.57;;
5981;SDS011;3018;48.730;9.336;2023-02-23T02:44:31;25.60;;;15.50;;
5981;SDS011;3018;48.730;9.336;2023-02-23T02:47:04;24.23;;;15.40;;
5981;SDS011;3018;48.730;9.336;2023-02-23T02:49:38;19.48;;;15.65;;
5981;SDS011;3018;48.730;9.336;2023-02-23T02:52:08;27.00;;;15.45;;
5981;SDS011;3018;48.730;9.336;2023-02-23T02:54:39;25.52;;;16.80;;
5981;SDS011;3018;48.730;9.336;2023-02-23T02:57:07;21.23;;;15.57;;
5981;SDS011;3018;48.730;9.336;2023-02-23T02:59:41;23.90;;;16.35;;
5981;SDS011;3018;48.730;9.336;2023-02-23T03:02:25;24.55;;;16.17;;
5981;SDS011;3018;48.730;9.336;2023-02-23T03:05:11;29.42;;;17.00;;
5981;SDS011;3018;48.730;9.336;2023-02-23T03:07:56;22.15;;;16.75;;
5981;SDS011;3018;48.730;9.336;2023-02-23T03:10:48;22.92;;;15.48;;
5981;SDS011;3018;48.730;9.336;2023-02-23T03:13:39;21.65;;;16.42;;
5981;SDS011;3018;48.730;9.336;2023-02-23T03:16:27;21.85;;;15.82;;
5981;SDS011;3018;48.730;9.336;2023-02-23T03:19:14;21.23;;;15.85;;
5981;SDS011;3018;48.730;9.336;2023-02-23T03:22:02;29.45;;;15.98;;
5981;SDS011;3018;48.730;9.336;2023-02-23T03:24:48;20.17;;;15.70;;
5981;SDS011;3018;48.730;9.336;2023-02-23T03:27:39;19.90;;;15.35;;
5981;SDS011;3018;48.730;9.336;2023-02-23T03:30:25;23.60;;;16.02;;
5981;SDS011;3018;48.730;9.336;2023-02-23T03:33:11;22.67;;;15.50;;
5981;SDS011;3018;48.730;9.336;2023-02-23T03:35:59;23.63;;;15.90;;
5981;SDS011;3018;48.730;9.336;2023-02-23T03:38:44;21.73;;;15.88;;
5981;SDS011;3018;48.730;9.336;2023-02-23T03:41:30;26.13;;;17.02;;
5981;SDS011;3018;48.730;9.336;2023-02-23T03:44:18;27.90;;;18.63;;
5981;SDS011;3018;48.730;9.336;2023-02-23T03:47:05;23.13;;;16.50;;
5981;SDS011;3018;48.730;9.336;2023-02-23T03:49:49;24.98;;;17.25;;
5981;SDS011;3018;48.730;9.336;2023-02-23T03:52:35;23.85;;;17.25;;
5981;SDS011;3018;48.730;9.336;2023-02-23T03:55:23;27.02;;;17.77;;
5981;SDS011;3018;48.730;9.336;2023-02-23T03:58:09;23.85;;;17.27;;
5981;SDS011;3018;48.730;9.336;2023-02-23T04:00:56;26.13;;;17.45;;
5981;SDS011;3018;48.730;9.336;2023-02-23T04:03:41;26.95;;;17.17;;
5981;SDS011;3018;48.730;9.336;2023-02-23T04:06:27;25.63;;;18.20;;
5981;SDS011;3018;48.730;9.336;2023-02-23T04:09:13;24.58;;;15.88;;
5981;SDS011;3018;48.730;9.336;2023-02-23T04:11:59;23.60;;;17.35;;
5981;SDS011;3018;48.730;9.336;2023-02-23T04:14:47;23.27;;;17.05;;
5981;SDS011;3018;48.730;9.336;2023-02-23T04:17:16;27.20;;;16.83;;
5981;SDS011;3018;48.730;9.336;2023-02-23T04:19:48;26.83;;;17.20;;
5981;SDS011;3018;48.730;9.336;2023-02-23T04:22:15;21.60;;;16.15;;
5981;SDS011;3018;48.730;9.336;2023-02-23T04:24:41;25.52;;;17.15;;
5981;SDS011;3018;48.730;9.336;2023-02-23T04:27:07;23.83;;;17.25;;
5981;SDS011;3018;48.730;9.336;2023-02-23T04:29:34;24.85;;;16.88;;
5981;SDS011;3018;48.730;9.336;2023-02-23T04:32:00;22.90;;;17.08;;
5981;SDS011;3018;48.730;9.336;2023-02-23T04:34:27;24.02;;;16.90;;
5981;SDS011;3018;48.730;9.336;2023-02-23T04:36:54;23.90;;;18.23;;
5981;SDS011;3018;48.730;9.336;2023-02-23T04:39:20;25.30;;;18.92;;
5981;SDS011;3018;48.730;9.336;2023-02-23T04:41:46;24.67;;;18.15;;
5981;SDS011;3018;48.730;9.336;2023-02-23T04:44:14;25.80;;;17.55;;
5981;SDS011;3018;48.730;9.336;2023-02-23T04:46:40;23.02;;;17.45;;
5981;SDS011;3018;48.730;9.336;2023-02-23T04:49:06;23.58;;;16.77;;
5981;SDS011;3018;48.730;9.336;2023-02-23T04:51:34;22.27;;;16.23;;
5981;SDS011;3018;48.730;9.336;2023-02-23T04:54:01;25.20;;;17.27;;
5981;SDS011;3018;48.730;9.336;2023-02-23T04:56:27;26.13;;;17.48;;
5981;SDS011;3018;48.730;9.336;2023-02-23T04:58:54;29.23;;;18.40;;
5981;SDS011;3018;48.730;9.336;2023-02-23T05:01:20;30.17;;;17.70;;
5981;SDS011;3018;48.730;9.336;2023-02-23T05:03:47;26.27;;;17.95;;
5981;SDS011;3018;48.730;9.336;2023-02-23T05:06:13;27.50;;;19.23;;
5981;SDS011;3018;48.730;9.336;2023-02-23T05:08:41;36.00;;;20.90;;
5981;SDS011;3018;48.730;9.336;2023-02-23T05:11:08;30.95;;;18.75;;
5981;SDS011;3018;48.730;9.336;2023-02-23T05:13:34;27.52;;;18.15;;
5981;SDS011;3018;48.730;9.336;2023-02-23T05:16:00;24.17;;;17.75;;
5981;SDS011;3018;48.730;9.336;2023-02-23T05:18:27;31.38;;;17.85;;
5981;SDS011;3018;48.730;9.336;2023-02-23T05:20:59;25.77;;;18.67;;
5981;SDS011;3018;48.730;9.336;2023-02-23T05:23:26;24.20;;;18.27;;
5981;SDS011;3018;48.730;9.336;2023-02-23T05:25:53;25.75;;;18.55;;
5981;SDS011;3018;48.730;9.336;2023-02-23T05:28:25;22.85;;;17.50;;
5981;SDS011;3018;48.730;9.336;2023-02-23T05:30:51;23.13;;;17.75;;
5981;SDS011;3018;48.730;9.336;2023-02-23T05:33:17;24.83;;;18.17;;
5981;SDS011;3018;48.730;9.336;2023-02-23T05:35:43;27.10;;;18.85;;
5981;SDS011;3018;48.730;9.336;2023-02-23T05:38:10;24.38;;;17.83;;
5981;SDS011;3018;48.730;9.336;2023-02-23T05:40:36;27.48;;;17.85;;
5981;SDS011;3018;48.730;9.336;2023-02-23T05:43:05;29.38;;;19.52;;
5981;SDS011;3018;48.730;9.336;2023-02-23T05:45:31;25.42;;;18.45;;
5981;SDS011;3018;48.730;9.336;2023-02-23T05:47:58;26.35;;;18.80;;
5981;SDS011;3018;48.730;9.336;2023-02-23T05:50:24;23.88;;;18.15;;
5981;SDS011;3018;48.730;9.336;2023-02-23T05:52:51;25.65;;;18.42;;
5981;SDS011;3018;48.730;9.336;2023-02-23T05:55:17;26.65;;;18.27;;
5981;SDS011;3018;48.730;9.336;2023-02-23T05:57:44;28.45;;;18.83;;
5981;SDS011;3018;48.730;9.336;2023-02-23T06:00:12;26.20;;;19.02;;
5981;SDS011;3018;48.730;9.336;2023-02-23T06:02:38;24.73;;;17.83;;
5981;SDS011;3018;48.730;9.336;2023-02-23T06:05:06;25.88;;;19.60;;
5981;SDS011;3018;48.730;9.336;2023-02-23T06:07:32;25.83;;;19.85;;
5981;SDS011;3018;48.730;9.336;2023-02-23T06:09:58;28.23;;;18.42;;
5981;SDS011;3018;48.730;9.336;2023-02-23T06:12:24;27.90;;;19.23;;
5981;SDS011;3018;48.730;9.336;2023-02-23T06:14:51;23.02;;;18.13;;
5981;SDS011;3018;48.730;9.336;2023-02-23T06:17:18;23.42;;;18.90;;
5981;SDS011;3018;48.730;9.336;2023-02-23T06:19:45;27.95;;;19.27;;
5981;SDS011;3018;48.730;9.336;2023-02-23T06:22:11;24.30;;;17.80;;
5981;SDS011;3018;48.730;9.336;2023-02-23T06:24:37;28.02;;;19.70;;
5981;SDS011;3018;48.730;9.336;2023-02-23T06:27:03;25.38;;;18.27;;
5981;SDS011;3018;48.730;9.336;2023-02-23T06:29:31;27.33;;;18.25;;
5981;SDS011;3018;48.730;9.336;2023-02-23T06:31:57;29.33;;;19.65;;
5981;SDS011;3018;48.730;9.336;2023-02-23T06:34:25;27.92;;;20.23;;
5981;SDS011;3018;48.730;9.336;2023-02-23T06:36:51;26.77;;;19.65;;
5981;SDS011;3018;48.730;9.336;2023-02-23T06:39:17;26.13;;;19.42;;
5981;SDS011;3018;48.730;9.336;2023-02-23T06:41:44;26.52;;;20.38;;
5981;SDS011;3018;48.730;9.336;2023-02-23T06:44:10;27.27;;;19.42;;
5981;SDS011;3018;48.730;9.336;2023-02-23T06:46:36;23.35;;;18.90;;
5981;SDS011;3018;48.730;9.336;2023-02-23T06:49:02;26.45;;;18.73;;
5981;SDS011;3018;48.730;9.336;2023-02-23T06:51:30;32.75;;;19.17;;
5981;SDS011;3018;48.730;9.336;2023-02-23T06:53:56;29.75;;;19.25;;
5981;SDS011;3018;48.730;9.336;2023-02-23T06:56:23;28.58;;;19.45;;
5981;SDS011;3018;48.730;9.336;2023-02-23T06:58:49;26.77;;;19.58;;
5981;SDS011;3018;48.730;9.336;2023-02-23T07:01:15;31.00;;;19.77;;
5981;SDS011;3018;48.730;9.336;2023-02-23T07:03:42;29.70;;;19.55;;
5981;SDS011;3018;48.730;9.336;2023-02-23T07:06:08;29.45;;;20.00;;
5981;SDS011;3018;48.730;9.336;2023-02-23T07:08:36;31.55;;;20.23;;
5981;SDS011;3018;48.730;9.336;2023-02-23T07:11:06;36.45;;;20.77;;
5981;SDS011;3018;48.730;9.336;2023-02-23T07:13:32;32.13;;;20.58;;
5981;SDS011;3018;48.730;9.336;2023-02-23T07:15:58;26.45;;;20.40;;
5981;SDS011;3018;48.730;9.336;2023-02-23T07:18:25;26.63;;;19.08;;
5981;SDS011;3018;48.730;9.336;2023-02-23T07:20:51;28.95;;;21.10;;
5981;SDS011;3018;48.730;9.336;2023-02-23T07:23:17;29.25;;;21.38;;
5981;SDS011;3018;48.730;9.336;2023-02-23T07:25:45;32.50;;;19.27;;
5981;SDS011;3018;48.730;9.336;2023-02-23T07:28:11;31.60;;;20.08;;
5981;SDS011;3018;48.730;9.336;2023-02-23T07:30:38;27.65;;;21.15;;
5981;SDS011;3018;48.730;9.336;2023-02-23T07:33:05;29.52;;;20.20;;
5981;SDS011;3018;48.730;9.336;2023-02-23T07:35:31;31.70;;;20.40;;
5981;SDS011;3018;48.730;9.336;2023-02-23T07:37:57;29.52;;;20.17;;
5981;SDS011;3018;48.730;9.336;2023-02-23T07:40:23;28.38;;;19.88;;
5981;SDS011;3018;48.730;9.336;2023-02-23T07:42:51;26.23;;;19.83;;
5981;SDS011;3018;48.730;9.336;2023-02-23T07:45:19;30.40;;;21.23;;
5981;SDS011;3018;48.730;9.336;2023-02-23T07:47:45;30.80;;;20.38;;
5981;SDS011;3018;48.730;9.336;2023-02-23T07:50:11;32.60;;;21.15;;
5981;SDS011;3018;48.730;9.336;2023-02-23T07:52:38;28.70;;;20.00;;
5981;SDS011;3018;48.730;9.336;2023-02-23T07:55:05;31.30;;;20.17;;
5981;SDS011;3018;48.730;9.336;2023-02-23T07:57:32;35.72;;;20.17;;
5981;SDS011;3018;48.730;9.336;2023-02-23T07:59:59;31.63;;;22.30;;
5981;SDS011;3018;48.730;9.336;2023-02-23T08:02:26;29.98;;;21.17;;
5981;SDS011;3018;48.730;9.336;2023-02-23T08:04:53;36.05;;;22.77;;
5981;SDS011;3018;48.730;9.336;2023-02-23T08:07:20;40.83;;;22.77;;
5981;SDS011;3018;48.730;9.336;2023-02-23T08:09:47;33.17;;;21.45;;
5981;SDS011;3018;48.730;9.336;2023-02-23T08:12:13;37.85;;;23.88;;
5981;SDS011;3018;48.730;9.336;2023-02-23T08:14:40;33.97;;;21.75;;
5981;SDS011;3018;48.730;9.336;2023-02-23T08:17:08;35.72;;;22.75;;
5981;SDS011;3018;48.730;9.336;2023-02-23T08:19:34;36.05;;;22.45;;
5981;SDS011;3018;48.730;9.336;2023-02-23T08:22:01;38.30;;;22.60;;
5981;SDS011;3018;48.730;9.336;2023-02-23T08:24:27;36.70;;;22.83;;
5981;SDS011;3018;48.730;9.336;2023-02-23T08:26:54;35.15;;;23.13;;
5981;SDS011;3018;48.730;9.336;2023-02-23T08:29:21;36.80;;;23.45;;
5981;SDS011;3018;48.730;9.336;2023-02-23T08:31:47;34.03;;;22.50;;
5981;SDS011;3018;48.730;9.336;2023-02-23T08:34:16;38.92;;;24.63;;
5981;SDS011;3018;48.730;9.336;2023-02-23T08:36:43;37.03;;;24.20;;
5981;SDS011;3018;48.730;9.336;2023-02-23T08:39:09;36.42;;;24.35;;
5981;SDS011;3018;48.730;9.336;2023-02-23T08:41:36;34.17;;;24.77;;
5981;SDS011;3018;48.730;9.336;2023-02-23T08:44:02;34.40;;;24.55;;
5981;SDS011;3018;48.730;9.336;2023-02-23T08:46:29;40.13;;;25.85;;
5981;SDS011;3018;48.730;9.336;2023-02-23T08:48:55;37.40;;;25.50;;
5981;SDS011;3018;48.730;9.336;2023-02-23T08:51:23;34.88;;;23.17;;
5981;SDS011;3018;48.730;9.336;2023-02-23T08:53:49;37.88;;;25.70;;
5981;SDS011;3018;48.730;9.336;2023-02-23T08:56:15;35.58;;;25.38;;
5981;SDS011;3018;48.730;9.336;2023-02-23T08:58:42;36.15;;;25.52;;
5981;SDS011;3018;48.730;9.336;2023-02-23T09:01:13;37.88;;;25.88;;
5981;SDS011;3018;48.730;9.336;2023-02-23T09:03:41;38.38;;;26.30;;
5981;SDS011;3018;48.730;9.336;2023-02-23T09:06:08;35.95;;;25.80;;
5981;SDS011;3018;48.730;9.336;2023-02-23T09:08:36;43.35;;;27.40;;
5981;SDS011;3018;48.730;9.336;2023-02-23T09:11:03;41.92;;;26.55;;
5981;SDS011;3018;48.730;9.336;2023-02-23T09:13:29;39.15;;;25.73;;
5981;SDS011;3018;48.730;9.336;2023-02-23T09:15:56;41.15;;;28.20;;
5981;SDS011;3018;48.730;9.336;2023-02-23T09:18:22;36.53;;;27.08;;
5981;SDS011;3018;48.730;9.336;2023-02-23T09:20:53;44.15;;;29.73;;
5981;SDS011;3018;48.730;9.336;2023-02-23T09:23:19;42.70;;;28.63;;
5981;SDS011;3018;48.730;9.336;2023-02-23T09:25:47;42.65;;;29.45;;
5981;SDS011;3018;48.730;9.336;2023-02-23T09:28:14;39.33;;;28.73;;
5981;SDS011;3018;48.730;9.336;2023-02-23T09:30:40;46.08;;;28.17;;
5981;SDS011;3018;48.730;9.336;2023-02-23T09:33:07;37.08;;;27.08;;
5981;SDS011;3018;48.730;9.336;2023-02-23T09:35:34;37.75;;;26.38;;
5981;SDS011;3018;48.730;9.336;2023-02-23T09:38:01;37.55;;;25.02;;
5981;SDS011;3018;48.730;9.336;2023-02-23T09:40:29;33.63;;;23.38;;
5981;SDS011;3018;48.730;9.336;2023-02-23T09:42:58;35.63;;;24.90;;
5981;SDS011;3018;48.730;9.336;2023-02-23T09:45:28;41.28;;;22.58;;
5981;SDS011;3018;48.730;9.336;2023-02-23T09:47:59;35.17;;;23.80;;
5981;SDS011;3018;48.730;9.336;2023-02-23T09:50:30;37.17;;;23.52;;
5981;SDS011;3018;48.730;9.336;2023-02-23T09:52:57;32.20;;;22.90;;
5981;SDS011;3018;48.730;9.336;2023-02-23T09:55:25;32.35;;;23.63;;
5981;SDS011;3018;48.730;9.336;2023-02-23T09:57:52;33.17;;;22.52;;
5981;SDS011;3018;48.730;9.336;2023-02-23T10:00:20;33.97;;;22.17;;
5981;SDS011;3018;48.730;9.336;2023-02-23T10:05:44;32.33;;;21.45;;
5981;SDS011;3018;48.730;9.336;2023-02-23T10:08:14;27.52;;;20.90;;
5981;SDS011;3018;48.730;9.336;2023-02-23T10:10:45;24.95;;;19.30;;
5981;SDS011;3018;48.730;9.336;2023-02-23T10:13:14;26.92;;;18.15;;
5981;SDS011;3018;48.730;9.336;2023-02-23T10:15:43;20.30;;;15.13;;
5981;SDS011;3018;48.730;9.336;2023-02-23T10:18:15;21.10;;;14.95;;
5981;SDS011;3018;48.730;9.336;2023-02-23T10:20:45;19.85;;;15.38;;
5981;SDS011;3018;48.730;9.336;2023-02-23T10:23:17;19.08;;;14.23;;
5981;SDS011;3018;48.730;9.336;2023-02-23T10:25:45;17.67;;;13.13;;
5981;SDS011;3018;48.730;9.336;2023-02-23T10:28:12;16.77;;;11.98;;
5981;SDS011;3018;48.730;9.336;2023-02-23T10:30:39;20.77;;;12.95;;
5981;SDS011;3018;48.730;9.336;2023-02-23T10:33:09;20.00;;;13.25;;
5981;SDS011;3018;48.730;9.336;2023-02-23T10:35:38;18.23;;;13.68;;
5981;SDS011;3018;48.730;9.336;2023-02-23T10:38:04;14.95;;;12.23;;
5981;SDS011;3018;48.730;9.336;2023-02-23T10:40:31;18.83;;;12.55;;
5981;SDS011;3018;48.730;9.336;2023-02-23T10:42:58;17.95;;;12.65;;
5981;SDS011;3018;48.730;9.336;2023-02-23T10:45:26;15.15;;;12.05;;
5981;SDS011;3018;48.730;9.336;2023-02-23T10:47:54;16.33;;;12.10;;
5981;SDS011;3018;48.730;9.336;2023-02-23T10:50:23;18.92;;;12.10;;
5981;SDS011;3018;48.730;9.336;2023-02-23T10:52:51;22.75;;;12.85;;
5981;SDS011;3018;48.730;9.336;2023-02-23T10:55:19;14.13;;;11.45;;
5981;SDS011;3018;48.730;9.336;2023-02-23T10:57:47;14.05;;;11.60;;
5981;SDS011;3018;48.730;9.336;2023-02-23T11:00:23;13.50;;;11.40;;
5981;SDS011;3018;48.730;9.336;2023-02-23T11:02:56;15.05;;;12.02;;
5981;SDS011;3018;48.730;9.336;2023-02-23T11:05:29;15.27;;;10.93;;
5981;SDS011;3018;48.730;9.336;2023-02-23T11:08:10;15.82;;;10.35;;
5981;SDS011;3018;48.730;9.336;2023-02-23T11:10:36;14.55;;;11.02;;
5981;SDS011;3018;48.730;9.336;2023-02-23T11:13:03;14.70;;;10.32;;
5981;SDS011;3018;48.730;9.336;2023-02-23T11:15:29;12.10;;;10.18;;
5981;SDS011;3018;48.730;9.336;2023-02-23T11:17:56;12.98;;;9.82;;
5981;SDS011;3018;48.730;9.336;2023-02-23T11:20:24;14.52;;;10.48;;
5981;SDS011;3018;48.730;9.336;2023-02-23T11:22:52;13.18;;;9.40;;
5981;SDS011;3018;48.730;9.336;2023-02-23T11:25:23;12.98;;;9.35;;
5981;SDS011;3018;48.730;9.336;2023-02-23T11:27:50;14.98;;;9.25;;
5981;SDS011;3018;48.730;9.336;2023-02-23T11:30:18;11.73;;;8.18;;
5981;SDS011;3018;48.730;9.336;2023-02-23T11:32:48;12.00;;;7.22;;
5981;SDS011;3018;48.730;9.336;2023-02-23T11:35:26;11.63;;;7.97;;
5981;SDS011;3018;48.730;9.336;2023-02-23T11:37:54;11.23;;;7.22;;
5981;SDS011;3018;48.730;9.336;2023-02-23T11:40:23;9.10;;;6.07;;
5981;SDS011;3018;48.730;9.336;2023-02-23T11:42:50;7.85;;;6.18;;
5981;SDS011;3018;48.730;9.336;2023-02-23T11:45:17;9.85;;;6.07;;
5981;SDS011;3018;48.730;9.336;2023-02-23T11:47:45;11.45;;;7.05;;
5981;SDS011;3018;48.730;9.336;2023-02-23T11:50:19;11.18;;;6.57;;
5981;SDS011;3018;48.730;9.336;2023-02-23T11:52:46;12.55;;;7.03;;
5981;SDS011;3018;48.730;9.336;2023-02-23T11:55:16;10.05;;;6.03;;
5981;SDS011;3018;48.730;9.336;2023-02-23T11:57:43;12.52;;;6.13;;
5981;SDS011;3018;48.730;9.336;2023-02-23T12:00:20;10.55;;;5.68;;
5981;SDS011;3018;48.730;9.336;2023-02-23T12:02:48;7.68;;;5.03;;
5981;SDS011;3018;48.730;9.336;2023-02-23T12:05:16;5.75;;;4.18;;
5981;SDS011;3018;48.730;9.336;2023-02-23T12:07:44;9.35;;;3.75;;
5981;SDS011;3018;48.730;9.336;2023-02-23T12:10:20;7.97;;;3.53;;
5981;SDS011;3018;48.730;9.336;2023-02-23T12:12:50;4.13;;;3.22;;
5981;SDS011;3018;48.730;9.336;2023-02-23T12:15:21;4.75;;;3.10;;
5981;SDS011;3018;48.730;9.336;2023-02-23T12:17:50;3.17;;;2.85;;
5981;SDS011;3018;48.730;9.336;2023-02-23T12:20:19;7.97;;;3.28;;
5981;SDS011;3018;48.730;9.336;2023-02-23T12:22:48;10.73;;;3.50;;
5981;SDS011;3018;48.730;9.336;2023-02-23T12:25:18;7.70;;;2.78;;
5981;SDS011;3018;48.730;9.336;2023-02-23T12:27:50;7.03;;;2.75;;
5981;SDS011;3018;48.730;9.336;2023-02-23T12:30:17;4.72;;;2.60;;
5981;SDS011;3018;48.730;9.336;2023-02-23T12:32:45;7.50;;;2.70;;
5981;SDS011;3018;48.730;9.336;2023-02-23T12:35:14;7.65;;;3.33;;
5981;SDS011;3018;48.730;9.336;2023-02-23T12:37:42;7.03;;;3.53;;
5981;SDS011;3018;48.730;9.336;2023-02-23T12:40:12;7.32;;;3.35;;
5981;SDS011;3018;48.730;9.336;2023-02-23T12:42:41;10.30;;;5.65;;
5981;SDS011;3018;48.730;9.336;2023-02-23T12:45:12;7.22;;;5.40;;
5981;SDS011;3018;48.730;9.336;2023-02-23T12:47:43;6.53;;;3.85;;
5981;SDS011;3018;48.730;9.336;2023-02-23T12:50:13;6.38;;;2.97;;
5981;SDS011;3018;48.730;9.336;2023-02-23T12:52:44;6.03;;;3.85;;
5981;SDS011;3018;48.730;9.336;2023-02-23T12:55:13;7.45;;;4.03;;
5981;SDS011;3018;48.730;9.336;2023-02-23T12:57:41;8.57;;;3.95;;
5981;SDS011;3018;48.730;9.336;2023-02-23T13:03:03;5.55;;;3.58;;
5981;SDS011;3018;48.730;9.336;2023-02-23T13:05:34;5.95;;;3.22;;
5981;SDS011;3018;48.730;9.336;2023-02-23T13:08:04;7.30;;;3.53;;
5981;SDS011;3018;48.730;9.336;2023-02-23T13:10:36;5.93;;;3.08;;
5981;SDS011;3018;48.730;9.336;2023-02-23T13:13:10;6.30;;;3.85;;
5981;SDS011;3018;48.730;9.336;2023-02-23T13:15:44;11.63;;;4.10;;
5981;SDS011;3018;48.730;9.336;2023-02-23T13:18:14;6.25;;;3.40;;
5981;SDS011;3018;48.730;9.336;2023-02-23T13:20:44;8.07;;;3.47;;
5981;SDS011;3018;48.730;9.336;2023-02-23T13:23:14;8.05;;;3.40;;
5981;SDS011;3018;48.730;9.336;2023-02-23T13:25:47;10.80;;;3.50;;
5981;SDS011;3018;48.730;9.336;2023-02-23T13:28:14;5.35;;;3.80;;
5981;SDS011;3018;48.730;9.336;2023-02-23T13:30:42;8.55;;;3.90;;
5981;SDS011;3018;48.730;9.336;2023-02-23T13:33:23;7.35;;;3.63;;
5981;SDS011;3018;48.730;9.336;2023-02-23T13:35:50;8.68;;;3.63;;
5981;SDS011;3018;48.730;9.336;2023-02-23T13:38:16;8.00;;;3.88;;
5981;SDS011;3018;48.730;9.336;2023-02-23T13:40:45;8.65;;;3.22;;
5981;SDS011;3018;48.730;9.336;2023-02-23T13:43:14;8.00;;;3.85;;
5981;SDS011;3018;48.730;9.336;2023-02-23T13:45:49;5.35;;;3.40;;
5981;SDS011;3018;48.730;9.336;2023-02-23T13:48:26;5.85;;;3.60;;
5981;SDS011;3018;48.730;9.336;2023-02-23T13:50:56;9.98;;;4.10;;
5981;SDS011;3018;48.730;9.336;2023-02-23T13:53:26;9.60;;;3.50;;
5981;SDS011;3018;48.730;9.336;2023-02-23T13:55:53;5.38;;;3.20;;
5981;SDS011;3018;48.730;9.336;2023-02-23T13:58:24;4.78;;;3.20;;
5981;SDS011;3018;48.730;9.336;2023-02-23T14:00:52;4.97;;;3.10;;
5981;SDS011;3018;48.730;9.336;2023-02-23T14:03:20;5.55;;;3.45;;
5981;SDS011;3018;48.730;9.336;2023-02-23T14:05:49;3.80;;;3.28;;
5981;SDS011;3018;48.730;9.336;2023-02-23T14:08:19;4.90;;;3.17;;
5981;SDS011;3018;48.730;9.336;2023-02-23T14:10:47;7.85;;;3.55;;
5981;SDS011;3018;48.730;9.336;2023-02-23T14:16:08;4.18;;;2.67;;
5981;SDS011;3018;48.730;9.336;2023-02-23T14:18:35;5.25;;;2.67;;
5981;SDS011;3018;48.730;9.336;2023-02-23T14:21:18;7.63;;;3.05;;
5981;SDS011;3018;48.730;9.336;2023-02-23T14:23:50;5.07;;;2.92;;
5981;SDS011;3018;48.730;9.336;2023-02-23T14:31:51;7.30;;;3.17;;
5981;SDS011;3018;48.730;9.336;2023-02-23T14:34:19;11.20;;;3.83;;
5981;SDS011;3018;48.730;9.336;2023-02-23T14:36:48;8.73;;;3.65;;
5981;SDS011;3018;48.730;9.336;2023-02-23T14:39:17;3.90;;;3.17;;
5981;SDS011;3018;48.730;9.336;2023-02-23T14:41:48;10.52;;;4.13;;
5981;SDS011;3018;48.730;9.336;2023-02-23T14:44:15;9.30;;;3.85;;
5981;SDS011;3018;48.730;9.336;2023-02-23T14:46:46;7.22;;;3.40;;
5981;SDS011;3018;48.730;9.336;2023-02-23T14:49:14;5.68;;;3.10;;
5981;SDS011;3018;48.730;9.336;2023-02-23T14:51:43;4.10;;;3.42;;
5981;SDS011;3018;48.730;9.336;2023-02-23T14:54:20;5.07;;;3.50;;
5981;SDS011;3018;48.730;9.336;2023-02-23T14:56:48;11.05;;;3.80;;
5981;SDS011;3018;48.730;9.336;2023-02-23T14:59:16;9.95;;;4.32;;
5981;SDS011;3018;48.730;9.336;2023-02-23T15:01:43;8.07;;;3.90;;
5981;SDS011;3018;48.730;9.336;2023-02-23T15:04:10;7.38;;;4.80;;
5981;SDS011;3018;48.730;9.336;2023-02-23T15:06:37;8.48;;;4.43;;
5981;SDS011;3018;48.730;9.336;2023-02-23T15:09:05;9.00;;;4.25;;
5981;SDS011;3018;48.730;9.336;2023-02-23T15:11:33;6.65;;;4.75;;
5981;SDS011;3018;48.730;9.336;2023-02-23T15:14:01;10.48;;;4.28;;
5981;SDS011;3018;48.730;9.336;2023-02-23T15:16:27;10.43;;;4.40;;
5981;SDS011;3018;48.730;9.336;2023-02-23T15:21:55;7.10;;;4.35;;
5981;SDS011;3018;48.730;9.336;2023-02-23T15:24:23;7.82;;;4.68;;
5981;SDS011;3018;48.730;9.336;2023-02-23T15:26:53;9.63;;;4.07;;
5981;SDS011;3018;48.730;9.336;2023-02-23T15:29:20;6.07;;;4.32;;
5981;SDS011;3018;48.730;9.336;2023-02-23T15:31:49;6.88;;;4.30;;